createdAt,value
2023-04-16T00:02:05.793Z,90.49
2023-04-16T00:04:33.064Z,90.31
2023-04-16T00:07:00.450Z,89.82
2023-04-16T00:09:29.057Z,89.87
2023-04-16T00:11:56.339Z,90.43
2023-04-16T00:14:23.553Z,90.43
2023-04-16T00:16:51.139Z,90.06
2023-04-16T00:19:18.356Z,89.96
2023-04-16T00:21:45.400Z,90.21
2023-04-16T00:24:12.839Z,90.32
2023-04-16T00:26:40.901Z,90.73
2023-04-16T00:29:08.574Z,90.20
2023-04-16T00:31:37.265Z,90.42
2023-04-16T00:34:04.564Z,90.17
2023-04-16T00:36:31.677Z,90.36
2023-04-16T00:38:58.808Z,90.20
2023-04-16T00:41:26.773Z,89.67
2023-04-16T00:43:54.191Z,89.63
2023-04-16T00:46:22.475Z,90.00
2023-04-16T00:48:51.540Z,89.69
2023-04-16T00:51:20.076Z,89.70
2023-04-16T00:53:47.292Z,89.65
2023-04-16T00:56:14.860Z,89.50
2023-04-16T00:58:41.995Z,89.68
2023-04-16T01:01:09.082Z,89.80
2023-04-16T01:03:43.720Z,89.90
2023-04-16T01:06:11.724Z,88.99
2023-04-16T01:08:47.037Z,89.45
2023-04-16T01:11:16.163Z,89.77
2023-04-16T01:13:43.426Z,89.25
2023-04-16T01:16:12.148Z,88.83
2023-04-16T01:18:40.442Z,89.38
2023-04-16T01:21:08.618Z,89.12
2023-04-16T01:23:38.430Z,89.39
2023-04-16T01:26:06.468Z,89.92
2023-04-16T01:28:36.376Z,90.08
2023-04-16T01:31:03.959Z,89.51
2023-04-16T01:33:31.409Z,89.27
2023-04-16T01:35:59.345Z,89.51
2023-04-16T01:38:28.236Z,89.06
2023-04-16T01:40:57.565Z,88.71
2023-04-16T01:43:26.226Z,88.44
2023-04-16T01:46:14.893Z,88.74
2023-04-16T01:48:42.464Z,88.38
2023-04-16T01:51:10.162Z,88.59
2023-04-16T01:53:37.360Z,88.52
2023-04-16T01:56:04.755Z,88.86
2023-04-16T01:58:32.416Z,88.22
2023-04-16T02:01:00.665Z,88.79
2023-04-16T02:03:28.371Z,88.61
2023-04-16T02:05:55.982Z,88.09
2023-04-16T02:08:23.743Z,87.77
2023-04-16T02:10:52.433Z,87.54
2023-04-16T02:13:20.426Z,87.12
2023-04-16T02:15:49.826Z,87.97
2023-04-16T02:18:17.835Z,87.91
2023-04-16T02:20:47.078Z,87.55
2023-04-16T02:23:17.944Z,87.34
2023-04-16T02:25:47.238Z,87.32
2023-04-16T02:28:16.857Z,87.38
2023-04-16T02:30:44.767Z,88.12
2023-04-16T02:33:13.594Z,87.97
2023-04-16T02:35:41.659Z,87.50
2023-04-16T02:38:10.359Z,87.31
2023-04-16T02:40:39.124Z,87.83
2023-04-16T02:43:07.542Z,86.79
2023-04-16T02:45:35.709Z,87.12
2023-04-16T02:48:03.887Z,86.54
2023-04-16T02:50:32.060Z,86.69
2023-04-16T02:53:01.572Z,86.65
2023-04-16T02:55:30.190Z,87.01
2023-04-16T02:57:57.716Z,86.87
2023-04-16T03:00:25.974Z,87.29
2023-04-16T03:02:55.257Z,87.23
2023-04-16T03:05:22.945Z,86.54
2023-04-16T03:07:57.010Z,86.45
2023-04-16T03:10:24.846Z,87.16
2023-04-16T03:12:53.000Z,87.18
2023-04-16T03:15:20.786Z,86.79
2023-04-16T03:17:48.835Z,87.74
2023-04-16T03:20:17.106Z,87.83
2023-04-16T03:22:44.213Z,87.61
2023-04-16T03:25:11.676Z,86.69
2023-04-16T03:27:41.734Z,87.16
2023-04-16T03:30:11.046Z,87.46
2023-04-16T03:32:38.577Z,87.05
2023-04-16T03:35:07.583Z,87.52
2023-04-16T03:37:34.782Z,87.25
2023-04-16T03:40:02.040Z,87.43
2023-04-16T03:42:29.109Z,87.26
2023-04-16T03:44:56.175Z,87.24
2023-04-16T03:47:23.585Z,87.41
2023-04-16T03:49:50.962Z,86.46
2023-04-16T03:52:18.043Z,86.89
2023-04-16T03:54:45.351Z,87.08
2023-04-16T03:57:12.415Z,87.26
2023-04-16T03:59:39.480Z,87.19
2023-04-16T04:02:06.703Z,87.35
2023-04-16T04:04:33.941Z,87.37
2023-04-16T04:07:01.165Z,86.58
2023-04-16T04:09:28.238Z,86.68
2023-04-16T04:11:55.442Z,87.35
2023-04-16T04:14:22.468Z,87.21
2023-04-16T04:16:49.502Z,86.15
2023-04-16T04:19:16.916Z,86.34
2023-04-16T04:21:43.964Z,85.93
2023-04-16T04:24:11.379Z,86.05
2023-04-16T04:26:38.543Z,86.74
2023-04-16T04:29:05.695Z,86.23
2023-04-16T04:31:33.045Z,85.55
2023-04-16T04:34:00.182Z,85.98
2023-04-16T04:36:27.438Z,86.13
2023-04-16T04:38:54.547Z,86.51
2023-04-16T04:41:21.872Z,85.51
2023-04-16T04:43:48.972Z,85.87
2023-04-16T04:46:16.183Z,85.46
2023-04-16T04:48:43.302Z,85.44
2023-04-16T04:51:10.531Z,85.44
2023-04-16T04:53:37.584Z,84.44
2023-04-16T04:56:12.091Z,84.92
2023-04-16T04:58:41.004Z,84.59
2023-04-16T05:01:08.122Z,84.90
2023-04-16T05:03:35.485Z,84.57
2023-04-16T05:06:02.821Z,84.86
2023-04-16T05:08:30.223Z,85.77
2023-04-16T05:10:57.356Z,85.83
2023-04-16T05:13:24.442Z,85.52
2023-04-16T05:15:51.503Z,85.68
2023-04-16T05:18:18.855Z,84.89
2023-04-16T05:20:46.084Z,85.39
2023-04-16T05:23:13.181Z,84.88
2023-04-16T05:25:40.250Z,85.51
2023-04-16T05:28:07.326Z,85.60
2023-04-16T05:30:34.404Z,85.75
2023-04-16T05:33:01.743Z,86.13
2023-04-16T05:35:28.864Z,85.25
2023-04-16T05:37:55.897Z,84.93
2023-04-16T05:40:23.039Z,84.97
2023-04-16T05:42:50.488Z,85.39
2023-04-16T05:45:17.659Z,84.87
2023-04-16T05:47:44.756Z,85.91
2023-04-16T05:50:11.814Z,85.49
2023-04-16T05:52:39.015Z,85.50
2023-04-16T05:55:07.089Z,84.92
2023-04-16T05:57:34.214Z,85.18
2023-04-16T06:00:01.646Z,85.34
2023-04-16T06:02:30.531Z,85.49
2023-04-16T06:04:57.704Z,84.54
2023-04-16T06:07:24.781Z,84.30
2023-04-16T06:09:51.850Z,84.69
2023-04-16T06:12:18.918Z,84.32
2023-04-16T06:14:45.988Z,84.57
2023-04-16T06:17:13.026Z,84.73
2023-04-16T06:19:40.769Z,84.66
2023-04-16T06:22:07.899Z,84.33
2023-04-16T06:24:34.936Z,84.07
2023-04-16T06:27:02.777Z,83.71
2023-04-16T06:29:40.665Z,83.58
2023-04-16T06:32:09.105Z,83.53
2023-04-16T06:34:38.502Z,83.73
2023-04-16T06:37:06.707Z,83.75
2023-04-16T06:39:35.205Z,83.54
2023-04-16T06:42:02.641Z,84.12
2023-04-16T06:44:29.733Z,83.63
2023-04-16T06:46:56.844Z,83.34
2023-04-16T06:49:24.230Z,83.28
2023-04-16T06:51:51.642Z,83.03
2023-04-16T06:54:19.732Z,84.23
2023-04-16T06:56:46.880Z,83.78
2023-04-16T06:59:14.200Z,84.19
2023-04-16T07:01:41.512Z,84.20
2023-04-16T07:04:09.523Z,84.52
2023-04-16T07:06:36.629Z,84.41
2023-04-16T07:09:03.793Z,83.55
2023-04-16T07:11:31.527Z,83.79
2023-04-16T07:13:58.988Z,83.55
2023-04-16T07:16:26.126Z,84.33
2023-04-16T07:18:53.239Z,83.51
2023-04-16T07:21:21.008Z,83.62
2023-04-16T07:23:48.216Z,84.28
2023-04-16T07:26:15.599Z,84.29
2023-04-16T07:28:43.586Z,84.46
2023-04-16T07:31:10.902Z,84.47
2023-04-16T07:33:38.227Z,84.29
2023-04-16T07:36:05.555Z,83.95
2023-04-16T07:38:32.645Z,84.25
2023-04-16T07:40:59.758Z,83.42
2023-04-16T07:43:26.897Z,83.11
2023-04-16T07:45:54.022Z,83.76
2023-04-16T07:48:22.002Z,83.02
2023-04-16T07:50:50.155Z,83.79
2023-04-16T07:53:17.260Z,83.61
2023-04-16T07:55:44.414Z,83.59
2023-04-16T07:58:11.519Z,83.60
2023-04-16T08:00:39.518Z,83.62
2023-04-16T08:03:06.997Z,83.68
2023-04-16T08:05:34.129Z,83.63
2023-04-16T08:08:01.256Z,83.64
2023-04-16T08:10:28.449Z,83.73
2023-04-16T08:12:55.523Z,83.61
2023-04-16T08:15:22.607Z,83.56
2023-04-16T08:17:49.725Z,83.58
2023-04-16T08:20:19.106Z,83.62
2023-04-16T08:22:46.702Z,84.08
2023-04-16T08:25:14.576Z,84.14
2023-04-16T08:27:41.676Z,83.30
2023-04-16T08:30:08.803Z,84.00
2023-04-16T08:32:35.968Z,83.42
2023-04-16T08:35:03.149Z,82.54
2023-04-16T08:37:30.458Z,83.34
2023-04-16T08:39:57.582Z,82.57
2023-04-16T08:42:32.617Z,81.83
2023-04-16T08:45:09.467Z,81.30
2023-04-16T08:47:37.297Z,81.19
2023-04-16T08:50:05.699Z,80.66
2023-04-16T08:52:33.185Z,79.54
2023-04-16T08:55:12.452Z,80.01
2023-04-16T08:57:46.251Z,79.55
2023-04-16T09:00:13.870Z,79.10
2023-04-16T09:02:41.182Z,78.64
2023-04-16T09:05:11.024Z,79.04
2023-04-16T09:07:38.806Z,78.33
2023-04-16T09:10:07.106Z,78.07
2023-04-16T09:12:35.799Z,77.31
2023-04-16T09:15:03.649Z,77.20
2023-04-16T09:17:31.330Z,76.94
2023-04-16T09:19:59.514Z,77.50
2023-04-16T09:22:26.648Z,77.62
2023-04-16T09:24:53.923Z,76.34
2023-04-16T09:27:21.534Z,75.92
2023-04-16T09:29:49.722Z,76.08
2023-04-16T09:32:16.804Z,76.83
2023-04-16T09:35:10.649Z,76.41
2023-04-16T09:37:38.690Z,76.65
2023-04-16T09:40:08.158Z,76.63
2023-04-16T09:42:36.998Z,77.11
2023-04-16T09:45:05.944Z,76.62
2023-04-16T09:47:42.107Z,76.56
2023-04-16T09:50:12.607Z,76.80
2023-04-16T09:52:44.198Z,76.94
2023-04-16T09:55:11.256Z,77.21
2023-04-16T09:57:39.196Z,75.43
2023-04-16T10:00:08.993Z,75.95
2023-04-16T10:02:39.095Z,75.75
2023-04-16T10:05:07.790Z,75.25
2023-04-16T10:07:36.122Z,74.42
2023-04-16T10:10:04.867Z,73.93
2023-04-16T10:12:33.074Z,74.18
2023-04-16T10:15:00.610Z,74.29
2023-04-16T10:17:30.230Z,73.98
2023-04-16T10:19:58.204Z,73.36
2023-04-16T10:22:26.364Z,74.31
2023-04-16T10:24:54.100Z,74.15
2023-04-16T10:27:21.459Z,74.30
2023-04-16T10:29:49.034Z,73.34
2023-04-16T10:32:17.436Z,73.13
2023-04-16T10:34:45.303Z,73.77
2023-04-16T10:37:12.690Z,73.44
2023-04-16T10:39:40.221Z,73.26
2023-04-16T10:42:13.800Z,72.54
2023-04-16T10:44:44.357Z,72.72
2023-04-16T10:47:14.253Z,71.55
2023-04-16T10:49:42.895Z,71.24
2023-04-16T10:52:17.245Z,71.30
2023-04-16T10:54:44.951Z,71.60
2023-04-16T10:57:19.954Z,72.12
2023-04-16T10:59:49.210Z,71.40
2023-04-16T11:02:20.470Z,69.94
2023-04-16T11:04:49.538Z,69.71
2023-04-16T11:07:17.293Z,69.94
2023-04-16T11:09:47.450Z,69.46
2023-04-16T11:12:27.648Z,70.11
2023-04-16T11:14:59.313Z,70.34
2023-04-16T11:17:41.301Z,70.16
2023-04-16T11:20:28.938Z,69.04
2023-04-16T11:22:57.365Z,69.30
2023-04-16T11:25:27.126Z,68.27
2023-04-16T11:27:56.248Z,69.79
2023-04-16T11:30:31.351Z,69.37
2023-04-16T11:32:58.539Z,69.62
2023-04-16T11:35:26.349Z,69.37
2023-04-16T11:37:56.524Z,69.48
2023-04-16T11:40:26.766Z,69.46
2023-04-16T11:42:54.077Z,70.29
2023-04-16T11:45:21.153Z,70.28
2023-04-16T11:47:53.363Z,70.08
2023-04-16T11:50:30.664Z,70.45
2023-04-16T11:53:04.164Z,69.99
2023-04-16T11:55:49.579Z,69.92
2023-04-16T11:58:16.638Z,69.41
2023-04-16T12:00:45.262Z,70.16
2023-04-16T12:03:12.963Z,69.34
2023-04-16T12:05:40.907Z,69.02
2023-04-16T12:08:09.941Z,69.78
2023-04-16T12:10:52.420Z,69.00
2023-04-16T12:13:20.142Z,68.73
2023-04-16T12:15:48.212Z,68.58
2023-04-16T12:18:16.415Z,68.02
2023-04-16T12:20:44.860Z,67.65
2023-04-16T12:23:24.689Z,65.84
2023-04-16T12:25:52.229Z,66.88
2023-04-16T12:28:33.341Z,65.84
2023-04-16T12:31:01.609Z,66.17
2023-04-16T12:33:29.466Z,67.06
2023-04-16T12:35:57.108Z,67.38
2023-04-16T12:38:25.565Z,66.74
2023-04-16T12:40:56.446Z,66.80
2023-04-16T12:43:24.054Z,65.54
2023-04-16T12:45:51.375Z,65.56
2023-04-16T12:48:18.653Z,66.18
2023-04-16T12:50:46.060Z,65.47
2023-04-16T12:53:13.122Z,65.14
2023-04-16T12:55:40.330Z,65.09
2023-04-16T12:58:11.078Z,66.10
2023-04-16T13:00:39.875Z,64.43
2023-04-16T13:03:07.036Z,65.00
2023-04-16T13:05:34.792Z,66.27
2023-04-16T13:08:02.136Z,65.87
2023-04-16T13:10:29.290Z,65.85
2023-04-16T13:12:57.517Z,65.53
2023-04-16T13:15:25.731Z,65.86
2023-04-16T13:17:53.014Z,66.83
2023-04-16T13:20:21.924Z,66.52
2023-04-16T13:22:51.051Z,66.51
2023-04-16T13:25:19.567Z,66.75
2023-04-16T13:27:47.609Z,67.27
2023-04-16T13:30:16.093Z,67.62
2023-04-16T13:32:44.086Z,68.10
2023-04-16T13:35:11.796Z,67.40
2023-04-16T13:37:39.053Z,67.74
2023-04-16T13:40:08.655Z,67.82
2023-04-16T13:42:37.532Z,68.40
2023-04-16T13:45:07.506Z,66.88
2023-04-16T13:47:36.797Z,67.89
2023-04-16T13:50:05.172Z,67.46
2023-04-16T13:52:33.542Z,67.72
2023-04-16T13:55:01.762Z,67.32
2023-04-16T13:57:29.215Z,67.09
2023-04-16T13:59:56.390Z,66.63
2023-04-16T14:02:23.567Z,67.30
2023-04-16T14:04:50.807Z,67.27
2023-04-16T14:07:19.870Z,66.99
2023-04-16T14:09:48.386Z,66.86
2023-04-16T14:12:16.307Z,66.54
2023-04-16T14:14:43.377Z,66.57
2023-04-16T14:17:11.686Z,67.04
2023-04-16T14:19:39.623Z,67.04
2023-04-16T14:22:09.479Z,66.52
2023-04-16T14:24:37.854Z,66.77
2023-04-16T14:27:07.692Z,66.25
2023-04-16T14:29:36.825Z,66.71
2023-04-16T14:32:06.178Z,66.65
2023-04-16T14:34:33.967Z,66.87
2023-04-16T14:37:02.469Z,66.93
2023-04-16T14:39:32.166Z,67.45
2023-04-16T14:42:00.610Z,67.80
2023-04-16T14:44:29.522Z,68.26
2023-04-16T14:46:58.210Z,68.42
2023-04-16T14:49:26.597Z,68.37
2023-04-16T14:51:54.639Z,68.78
2023-04-16T14:54:23.167Z,68.22
2023-04-16T14:56:51.294Z,68.42
2023-04-16T14:59:18.842Z,68.75
2023-04-16T15:01:48.059Z,68.92
2023-04-16T15:04:16.623Z,69.03
2023-04-16T15:06:46.525Z,69.15
2023-04-16T15:09:14.637Z,69.23
2023-04-16T15:11:42.617Z,69.44
2023-04-16T15:14:10.139Z,69.55
2023-04-16T15:16:38.780Z,69.73
2023-04-16T15:19:07.118Z,70.30
2023-04-16T15:21:34.845Z,69.54
2023-04-16T15:24:04.749Z,69.59
2023-04-16T15:26:33.039Z,70.19
2023-04-16T15:29:00.877Z,70.56
2023-04-16T15:31:29.611Z,71.42
2023-04-16T15:33:56.919Z,70.98
2023-04-16T15:36:24.777Z,71.36
2023-04-16T15:38:53.449Z,71.04
2023-04-16T15:41:20.826Z,71.87
2023-04-16T15:43:48.189Z,72.15
2023-04-16T15:46:15.604Z,72.45
2023-04-16T15:48:42.704Z,72.25
2023-04-16T15:51:10.624Z,73.02
2023-04-16T15:53:37.927Z,73.25
2023-04-16T15:56:05.090Z,72.87
2023-04-16T15:58:32.172Z,72.29
2023-04-16T16:00:59.270Z,72.44
2023-04-16T16:03:26.626Z,73.34
2023-04-16T16:05:53.816Z,73.59
2023-04-16T16:08:20.925Z,74.03
2023-04-16T16:10:48.678Z,73.94
2023-04-16T16:13:18.154Z,74.45
2023-04-16T16:15:45.866Z,74.92
2023-04-16T16:18:12.975Z,75.76
2023-04-16T16:20:40.536Z,75.76
2023-04-16T16:23:07.812Z,76.06
2023-04-16T16:25:35.195Z,76.11
2023-04-16T16:28:06.029Z,75.91
2023-04-16T16:30:33.531Z,76.73
2023-04-16T16:33:00.797Z,76.42
2023-04-16T16:35:27.903Z,76.65
2023-04-16T16:37:57.894Z,76.51
2023-04-16T16:40:25.289Z,76.90
2023-04-16T16:42:52.775Z,76.49
2023-04-16T16:45:20.748Z,76.45
2023-04-16T16:47:48.833Z,76.21
2023-04-16T16:50:16.130Z,76.52
2023-04-16T16:52:44.552Z,76.70
2023-04-16T16:55:11.967Z,77.13
2023-04-16T16:57:39.331Z,77.18
2023-04-16T17:00:16.329Z,77.80
2023-04-16T17:02:43.924Z,77.52
2023-04-16T17:05:12.552Z,77.58
2023-04-16T17:07:39.841Z,77.99
2023-04-16T17:10:07.358Z,78.02
2023-04-16T17:12:34.460Z,78.28
2023-04-16T17:15:01.555Z,78.10
2023-04-16T17:17:29.230Z,78.42
2023-04-16T17:19:56.329Z,78.50
2023-04-16T17:22:23.705Z,78.45
2023-04-16T17:24:50.908Z,78.69
2023-04-16T17:27:18.044Z,78.76
2023-04-16T17:29:45.384Z,79.12
2023-04-16T17:32:12.691Z,79.32
2023-04-16T17:34:39.897Z,79.61
2023-04-16T17:37:07.245Z,79.55
2023-04-16T17:39:34.316Z,79.81
2023-04-16T17:42:03.026Z,79.51
2023-04-16T17:44:30.382Z,79.90
2023-04-16T17:46:57.443Z,80.17
2023-04-16T17:49:24.524Z,80.58
2023-04-16T17:51:52.618Z,80.94
2023-04-16T17:54:19.847Z,81.03
2023-04-16T17:56:47.218Z,81.21
2023-04-16T17:59:14.302Z,81.34
2023-04-16T18:01:41.661Z,81.50
2023-04-16T18:04:09.578Z,81.79
2023-04-16T18:06:36.883Z,81.85
2023-04-16T18:09:05.771Z,82.79
2023-04-16T18:11:33.186Z,83.57
2023-04-16T18:14:00.241Z,84.31
2023-04-16T18:16:27.518Z,84.85
2023-04-16T18:18:54.606Z,85.09
2023-04-16T18:21:22.046Z,85.72
2023-04-16T18:23:49.133Z,86.60
2023-04-16T18:26:20.430Z,87.40
2023-04-16T18:28:49.277Z,87.79
2023-04-16T18:31:18.410Z,88.47
2023-04-16T18:33:56.279Z,88.38
2023-04-16T18:36:26.097Z,88.65
2023-04-16T18:39:01.491Z,89.35
2023-04-16T18:41:30.767Z,89.40
2023-04-16T18:43:58.162Z,89.67
2023-04-16T18:46:26.729Z,89.59
2023-04-16T18:48:54.259Z,89.78
2023-04-16T18:51:21.377Z,90.10
2023-04-16T18:53:48.420Z,90.06
2023-04-16T18:56:15.473Z,90.25
2023-04-16T18:58:43.415Z,90.70
2023-04-16T19:01:13.957Z,90.64
2023-04-16T19:03:41.482Z,91.18
2023-04-16T19:06:09.573Z,91.32
2023-04-16T19:08:36.617Z,91.30
2023-04-16T19:11:03.698Z,91.35
2023-04-16T19:13:32.242Z,91.17
2023-04-16T19:16:00.836Z,91.50
2023-04-16T19:18:28.997Z,91.18
2023-04-16T19:21:02.054Z,91.15
2023-04-16T19:23:29.670Z,91.11
2023-04-16T19:25:57.226Z,91.10
2023-04-16T19:28:25.014Z,91.03
2023-04-16T19:30:53.318Z,91.17
2023-04-16T19:33:20.525Z,91.25
2023-04-16T19:35:47.937Z,90.71
2023-04-16T19:38:15.055Z,90.81
2023-04-16T19:40:48.774Z,90.94
2023-04-16T19:43:15.863Z,90.77
2023-04-16T19:45:46.976Z,91.11
2023-04-16T19:48:14.385Z,90.98
2023-04-16T19:50:42.274Z,91.20
2023-04-16T19:53:09.597Z,91.04
2023-04-16T19:55:37.049Z,90.76
2023-04-16T19:58:06.825Z,90.84
2023-04-16T20:00:35.065Z,90.86
2023-04-16T20:03:02.225Z,90.91
2023-04-16T20:05:29.706Z,91.00
2023-04-16T20:07:57.060Z,90.51
2023-04-16T20:10:24.126Z,90.58
2023-04-16T20:12:51.305Z,90.34
2023-04-16T20:15:18.886Z,90.34
2023-04-16T20:17:46.084Z,90.42
2023-04-16T20:20:15.741Z,90.46
2023-04-16T20:22:43.388Z,90.58
2023-04-16T20:25:10.507Z,90.30
2023-04-16T20:27:37.651Z,89.88
2023-04-16T20:30:06.341Z,90.22
2023-04-16T20:32:33.624Z,90.29
2023-04-16T20:35:01.918Z,90.13
2023-04-16T20:37:29.203Z,89.80
2023-04-16T20:39:56.484Z,89.90
2023-04-16T20:42:26.186Z,90.37
2023-04-16T20:44:56.371Z,90.02
2023-04-16T20:47:23.928Z,89.60
2023-04-16T20:49:52.632Z,89.74
2023-04-16T20:52:21.655Z,89.59
2023-04-16T20:54:51.949Z,89.51
2023-04-16T20:57:19.137Z,89.74
2023-04-16T20:59:46.393Z,89.92
2023-04-16T21:02:13.657Z,89.88
2023-04-16T21:04:41.196Z,90.17
2023-04-16T21:07:08.319Z,90.34
2023-04-16T21:09:35.641Z,90.42
2023-04-16T21:12:02.748Z,90.56
2023-04-16T21:14:29.809Z,90.66
2023-04-16T21:16:56.896Z,90.90
2023-04-16T21:19:23.944Z,91.22
2023-04-16T21:21:51.227Z,91.43
2023-04-16T21:24:18.285Z,91.21
2023-04-16T21:26:45.366Z,91.25
2023-04-16T21:29:13.082Z,91.62
2023-04-16T21:31:40.439Z,91.75
2023-04-16T21:34:07.528Z,91.40
2023-04-16T21:36:35.057Z,91.68
2023-04-16T21:39:02.375Z,92.02
2023-04-16T21:41:29.450Z,91.86
2023-04-16T21:43:56.610Z,91.87
2023-04-16T21:46:23.779Z,91.96
2023-04-16T21:48:50.897Z,91.67
2023-04-16T21:51:18.179Z,91.07
2023-04-16T21:53:45.228Z,91.19
2023-04-16T21:56:12.328Z,91.08
2023-04-16T21:58:39.376Z,90.98
2023-04-16T22:01:07.277Z,91.06
2023-04-16T22:03:39.929Z,91.09
2023-04-16T22:06:07.744Z,91.47
2023-04-16T22:08:34.936Z,91.60
2023-04-16T22:11:02.629Z,91.70
2023-04-16T22:13:32.480Z,91.94
2023-04-16T22:16:03.417Z,91.25
2023-04-16T22:18:33.731Z,91.09
2023-04-16T22:21:00.944Z,91.24
2023-04-16T22:23:28.051Z,91.17
2023-04-16T22:25:56.124Z,91.01
2023-04-16T22:28:24.250Z,90.89
2023-04-16T22:30:51.392Z,91.53
2023-04-16T22:33:18.613Z,91.32
2023-04-16T22:35:46.003Z,91.25
2023-04-16T22:38:13.139Z,90.79
2023-04-16T22:40:40.680Z,90.97
2023-04-16T22:43:07.731Z,91.21
2023-04-16T22:45:35.558Z,91.21
2023-04-16T22:48:03.464Z,91.02
2023-04-16T22:50:32.108Z,91.23
2023-04-16T22:52:59.175Z,91.05
2023-04-16T22:55:26.404Z,91.37
2023-04-16T22:57:53.482Z,91.53
2023-04-16T23:00:21.146Z,91.23
2023-04-16T23:02:48.938Z,91.08
2023-04-16T23:05:16.414Z,90.97
2023-04-16T23:07:43.467Z,91.15
2023-04-16T23:10:10.811Z,90.79
2023-04-16T23:12:37.849Z,91.35
2023-04-16T23:15:06.622Z,91.69
2023-04-16T23:17:34.941Z,91.75
2023-04-16T23:20:02.492Z,91.36
2023-04-16T23:22:29.675Z,91.43
2023-04-16T23:24:56.894Z,91.30
2023-04-16T23:27:23.929Z,91.46
2023-04-16T23:29:51.089Z,91.46
2023-04-16T23:32:18.807Z,91.74
2023-04-16T23:34:45.980Z,91.53
2023-04-16T23:37:13.063Z,91.48
2023-04-16T23:39:41.019Z,91.56
2023-04-16T23:42:08.116Z,91.46
2023-04-16T23:44:35.380Z,91.68
2023-04-16T23:47:02.583Z,91.84
2023-04-16T23:49:30.068Z,91.90
2023-04-16T23:51:57.333Z,92.03
2023-04-16T23:54:24.618Z,92.27
2023-04-16T23:56:51.663Z,92.37
2023-04-16T23:59:18.874Z,92.60
